Millers Ferry, Alabama
Current Conditions -  °F | °C
As of 2:35 PM on Monday 24 Nov 2014 (Local Time) from KSEM Reporting Station
Clear Clear  
Wind Chill: 72°   Ceiling: Unl
Heat Index: 72°   Visibility: 10mi
Dew Point: 52°   Wind: 9mph
Humidity: 50%   Direction: 330°NNW
Pressure: 29.85"   Gusts: 16mph
Location:  32.0151°N, 87.2791°W
Report Text: KSEM 242035Z AUTO 33008G14KT 10SM CLR 22/11 A2985 RMK AO2
Loading
Personal Weather Stations






























Interactive Weather Map New forecast layout! Learn more

10-Day Weather Forecast

Advertisements
Track Severe Weather on mobile